sensor_id;sensor_type;location;lat;lon;timestamp;P1;durP1;ratioP1;P2;durP2;ratioP2
63320;SDS011;49449;48.800;9.534;2023-02-22T00:00:43;9.63;;;5.85;;
63320;SDS011;49449;48.800;9.534;2023-02-22T00:03:14;9.15;;;5.28;;
63320;SDS011;49449;48.800;9.534;2023-02-22T00:05:50;11.43;;;6.30;;
63320;SDS011;49449;48.800;9.534;2023-02-22T00:08:20;9.65;;;5.78;;
63320;SDS011;49449;48.800;9.534;2023-02-22T00:10:49;7.68;;;4.88;;
63320;SDS011;49449;48.800;9.534;2023-02-22T00:13:18;6.35;;;4.80;;
63320;SDS011;49449;48.800;9.534;2023-02-22T00:15:50;8.75;;;4.97;;
63320;SDS011;49449;48.800;9.534;2023-02-22T00:18:18;10.00;;;5.47;;
63320;SDS011;49449;48.800;9.534;2023-02-22T00:20:46;7.15;;;4.85;;
63320;SDS011;49449;48.800;9.534;2023-02-22T00:23:14;8.98;;;6.20;;
63320;SDS011;49449;48.800;9.534;2023-02-22T00:25:44;7.32;;;4.47;;
63320;SDS011;49449;48.800;9.534;2023-02-22T00:28:12;6.85;;;4.75;;
63320;SDS011;49449;48.800;9.534;2023-02-22T00:30:42;7.88;;;4.70;;
63320;SDS011;49449;48.800;9.534;2023-02-22T00:33:14;8.07;;;4.88;;
63320;SDS011;49449;48.800;9.534;2023-02-22T00:35:43;8.27;;;4.78;;
63320;SDS011;49449;48.800;9.534;2023-02-22T00:38:12;7.45;;;5.40;;
63320;SDS011;49449;48.800;9.534;2023-02-22T00:40:41;8.13;;;5.32;;
63320;SDS011;49449;48.800;9.534;2023-02-22T00:43:10;9.32;;;5.93;;
63320;SDS011;49449;48.800;9.534;2023-02-22T00:45:38;10.45;;;5.80;;
63320;SDS011;49449;48.800;9.534;2023-02-22T00:48:06;7.80;;;5.20;;
63320;SDS011;49449;48.800;9.534;2023-02-22T00:50:35;10.07;;;5.72;;
63320;SDS011;49449;48.800;9.534;2023-02-22T00:53:04;9.50;;;5.47;;
63320;SDS011;49449;48.800;9.534;2023-02-22T00:55:33;8.95;;;5.40;;
63320;SDS011;49449;48.800;9.534;2023-02-22T00:58:02;7.78;;;5.80;;
63320;SDS011;49449;48.800;9.534;2023-02-22T01:00:31;10.15;;;5.53;;
63320;SDS011;49449;48.800;9.534;2023-02-22T01:03:02;9.95;;;5.80;;
63320;SDS011;49449;48.800;9.534;2023-02-22T01:05:31;9.18;;;5.82;;
63320;SDS011;49449;48.800;9.534;2023-02-22T01:08:00;9.15;;;5.50;;
63320;SDS011;49449;48.800;9.534;2023-02-22T01:10:29;7.32;;;5.28;;
63320;SDS011;49449;48.800;9.534;2023-02-22T01:12:58;8.52;;;5.82;;
63320;SDS011;49449;48.800;9.534;2023-02-22T01:15:27;7.88;;;5.40;;
63320;SDS011;49449;48.800;9.534;2023-02-22T01:17:57;8.90;;;6.07;;
63320;SDS011;49449;48.800;9.534;2023-02-22T01:20:25;10.15;;;6.45;;
63320;SDS011;49449;48.800;9.534;2023-02-22T01:22:55;11.35;;;5.80;;
63320;SDS011;49449;48.800;9.534;2023-02-22T01:25:26;9.27;;;6.05;;
63320;SDS011;49449;48.800;9.534;2023-02-22T01:27:55;8.05;;;5.82;;
63320;SDS011;49449;48.800;9.534;2023-02-22T01:30:26;8.18;;;5.38;;
63320;SDS011;49449;48.800;9.534;2023-02-22T01:32:55;6.65;;;4.88;;
63320;SDS011;49449;48.800;9.534;2023-02-22T01:35:24;9.65;;;5.28;;
63320;SDS011;49449;48.800;9.534;2023-02-22T01:37:54;8.73;;;5.50;;
63320;SDS011;49449;48.800;9.534;2023-02-22T01:40:23;10.68;;;4.85;;
63320;SDS011;49449;48.800;9.534;2023-02-22T01:42:55;7.85;;;5.38;;
63320;SDS011;49449;48.800;9.534;2023-02-22T01:45:44;7.78;;;5.57;;
63320;SDS011;49449;48.800;9.534;2023-02-22T01:48:18;7.63;;;5.43;;
63320;SDS011;49449;48.800;9.534;2023-02-22T01:50:52;9.60;;;5.45;;
63320;SDS011;49449;48.800;9.534;2023-02-22T01:53:24;7.63;;;5.85;;
63320;SDS011;49449;48.800;9.534;2023-02-22T01:55:56;9.20;;;6.05;;
63320;SDS011;49449;48.800;9.534;2023-02-22T01:58:25;8.93;;;5.40;;
63320;SDS011;49449;48.800;9.534;2023-02-22T02:00:55;6.97;;;5.18;;
63320;SDS011;49449;48.800;9.534;2023-02-22T02:03:25;8.80;;;5.15;;
63320;SDS011;49449;48.800;9.534;2023-02-22T02:05:57;8.75;;;4.97;;
63320;SDS011;49449;48.800;9.534;2023-02-22T02:08:29;6.40;;;4.53;;
63320;SDS011;49449;48.800;9.534;2023-02-22T02:11:05;8.07;;;4.95;;
63320;SDS011;49449;48.800;9.534;2023-02-22T02:13:35;9.10;;;5.50;;
63320;SDS011;49449;48.800;9.534;2023-02-22T02:16:03;9.13;;;5.38;;
63320;SDS011;49449;48.800;9.534;2023-02-22T02:18:31;8.60;;;5.40;;
63320;SDS011;49449;48.800;9.534;2023-02-22T02:24:06;7.78;;;5.28;;
63320;SDS011;49449;48.800;9.534;2023-02-22T02:32:30;7.43;;;4.95;;
63320;SDS011;49449;48.800;9.534;2023-02-22T02:35:03;6.38;;;4.93;;
63320;SDS011;49449;48.800;9.534;2023-02-22T02:37:40;7.30;;;4.72;;
63320;SDS011;49449;48.800;9.534;2023-02-22T02:40:17;8.48;;;5.22;;
63320;SDS011;49449;48.800;9.534;2023-02-22T02:42:50;6.18;;;4.53;;
63320;SDS011;49449;48.800;9.534;2023-02-22T02:45:22;7.10;;;4.93;;
63320;SDS011;49449;48.800;9.534;2023-02-22T02:47:55;7.88;;;5.05;;
63320;SDS011;49449;48.800;9.534;2023-02-22T02:50:28;7.85;;;5.05;;
63320;SDS011;49449;48.800;9.534;2023-02-22T02:53:00;7.75;;;4.97;;
63320;SDS011;49449;48.800;9.534;2023-02-22T02:55:31;6.53;;;4.80;;
63320;SDS011;49449;48.800;9.534;2023-02-22T02:58:02;8.32;;;5.50;;
63320;SDS011;49449;48.800;9.534;2023-02-22T03:00:31;7.35;;;4.65;;
63320;SDS011;49449;48.800;9.534;2023-02-22T03:03:08;8.48;;;5.40;;
63320;SDS011;49449;48.800;9.534;2023-02-22T03:06:01;8.48;;;5.07;;
63320;SDS011;49449;48.800;9.534;2023-02-22T03:08:40;6.65;;;4.90;;
63320;SDS011;49449;48.800;9.534;2023-02-22T03:11:10;9.43;;;4.78;;
63320;SDS011;49449;48.800;9.534;2023-02-22T03:13:44;8.70;;;5.07;;
63320;SDS011;49449;48.800;9.534;2023-02-22T03:16:24;7.57;;;4.78;;
63320;SDS011;49449;48.800;9.534;2023-02-22T03:19:01;9.05;;;5.00;;
63320;SDS011;49449;48.800;9.534;2023-02-22T03:21:38;7.18;;;5.10;;
63320;SDS011;49449;48.800;9.534;2023-02-22T03:24:13;8.20;;;4.82;;
63320;SDS011;49449;48.800;9.534;2023-02-22T03:26:46;6.72;;;4.57;;
63320;SDS011;49449;48.800;9.534;2023-02-22T03:29:19;10.10;;;5.72;;
63320;SDS011;49449;48.800;9.534;2023-02-22T03:31:52;5.65;;;4.57;;
63320;SDS011;49449;48.800;9.534;2023-02-22T03:34:28;8.13;;;5.45;;
63320;SDS011;49449;48.800;9.534;2023-02-22T03:37:01;8.35;;;5.10;;
63320;SDS011;49449;48.800;9.534;2023-02-22T03:39:34;8.30;;;5.93;;
63320;SDS011;49449;48.800;9.534;2023-02-22T03:42:05;9.00;;;5.35;;
63320;SDS011;49449;48.800;9.534;2023-02-22T03:44:36;8.00;;;5.68;;
63320;SDS011;49449;48.800;9.534;2023-02-22T03:47:06;7.38;;;4.97;;
63320;SDS011;49449;48.800;9.534;2023-02-22T03:49:41;8.70;;;5.93;;
63320;SDS011;49449;48.800;9.534;2023-02-22T03:52:13;9.55;;;6.32;;
63320;SDS011;49449;48.800;9.534;2023-02-22T03:54:41;8.73;;;5.60;;
63320;SDS011;49449;48.800;9.534;2023-02-22T03:57:11;8.13;;;6.00;;
63320;SDS011;49449;48.800;9.534;2023-02-22T03:59:43;8.27;;;5.45;;
63320;SDS011;49449;48.800;9.534;2023-02-22T04:02:12;7.78;;;5.25;;
63320;SDS011;49449;48.800;9.534;2023-02-22T04:04:45;8.55;;;5.85;;
63320;SDS011;49449;48.800;9.534;2023-02-22T04:07:14;9.35;;;5.53;;
63320;SDS011;49449;48.800;9.534;2023-02-22T04:09:42;7.57;;;5.60;;
63320;SDS011;49449;48.800;9.534;2023-02-22T04:12:10;7.45;;;5.43;;
63320;SDS011;49449;48.800;9.534;2023-02-22T04:14:38;7.80;;;4.68;;
63320;SDS011;49449;48.800;9.534;2023-02-22T04:17:06;8.45;;;5.25;;
63320;SDS011;49449;48.800;9.534;2023-02-22T04:19:33;6.45;;;4.82;;
63320;SDS011;49449;48.800;9.534;2023-02-22T04:22:02;7.53;;;5.80;;
63320;SDS011;49449;48.800;9.534;2023-02-22T04:24:30;7.70;;;5.00;;
63320;SDS011;49449;48.800;9.534;2023-02-22T04:26:58;7.13;;;4.75;;
63320;SDS011;49449;48.800;9.534;2023-02-22T04:29:25;7.13;;;4.90;;
63320;SDS011;49449;48.800;9.534;2023-02-22T04:31:53;6.43;;;4.90;;
63320;SDS011;49449;48.800;9.534;2023-02-22T04:34:21;8.23;;;5.53;;
63320;SDS011;49449;48.800;9.534;2023-02-22T04:36:49;6.97;;;4.22;;
63320;SDS011;49449;48.800;9.534;2023-02-22T04:39:18;10.57;;;5.22;;
63320;SDS011;49449;48.800;9.534;2023-02-22T04:41:46;7.97;;;4.72;;
63320;SDS011;49449;48.800;9.534;2023-02-22T04:44:14;6.90;;;4.78;;
63320;SDS011;49449;48.800;9.534;2023-02-22T04:46:42;6.80;;;5.32;;
63320;SDS011;49449;48.800;9.534;2023-02-22T04:49:12;7.38;;;5.05;;
63320;SDS011;49449;48.800;9.534;2023-02-22T04:51:39;7.07;;;4.78;;
63320;SDS011;49449;48.800;9.534;2023-02-22T04:54:07;8.30;;;5.28;;
63320;SDS011;49449;48.800;9.534;2023-02-22T04:56:36;5.63;;;4.85;;
63320;SDS011;49449;48.800;9.534;2023-02-22T04:59:04;6.93;;;5.45;;
63320;SDS011;49449;48.800;9.534;2023-02-22T05:01:35;7.82;;;5.32;;
63320;SDS011;49449;48.800;9.534;2023-02-22T05:06:32;7.18;;;5.07;;
63320;SDS011;49449;48.800;9.534;2023-02-22T05:09:00;7.30;;;4.57;;
63320;SDS011;49449;48.800;9.534;2023-02-22T05:11:28;7.38;;;5.18;;
63320;SDS011;49449;48.800;9.534;2023-02-22T05:13:57;7.35;;;5.00;;
63320;SDS011;49449;48.800;9.534;2023-02-22T05:16:24;7.93;;;5.13;;
63320;SDS011;49449;48.800;9.534;2023-02-22T05:18:52;8.48;;;4.88;;
63320;SDS011;49449;48.800;9.534;2023-02-22T05:21:20;6.55;;;4.40;;
63320;SDS011;49449;48.800;9.534;2023-02-22T05:23:48;6.45;;;4.65;;
63320;SDS011;49449;48.800;9.534;2023-02-22T05:26:16;6.97;;;4.47;;
63320;SDS011;49449;48.800;9.534;2023-02-22T05:28:44;7.97;;;5.13;;
63320;SDS011;49449;48.800;9.534;2023-02-22T05:31:13;9.55;;;4.95;;
63320;SDS011;49449;48.800;9.534;2023-02-22T05:33:41;7.50;;;5.00;;
63320;SDS011;49449;48.800;9.534;2023-02-22T05:36:09;8.93;;;5.15;;
63320;SDS011;49449;48.800;9.534;2023-02-22T05:38:36;7.22;;;5.28;;
63320;SDS011;49449;48.800;9.534;2023-02-22T05:41:08;7.63;;;4.90;;
63320;SDS011;49449;48.800;9.534;2023-02-22T05:43:37;7.35;;;4.80;;
63320;SDS011;49449;48.800;9.534;2023-02-22T05:46:05;8.30;;;4.97;;
63320;SDS011;49449;48.800;9.534;2023-02-22T05:48:34;6.80;;;4.95;;
63320;SDS011;49449;48.800;9.534;2023-02-22T05:51:02;7.25;;;4.70;;
63320;SDS011;49449;48.800;9.534;2023-02-22T05:53:32;6.80;;;5.45;;
63320;SDS011;49449;48.800;9.534;2023-02-22T05:56:00;9.30;;;6.28;;
63320;SDS011;49449;48.800;9.534;2023-02-22T05:58:28;8.70;;;5.15;;
63320;SDS011;49449;48.800;9.534;2023-02-22T06:00:56;10.43;;;5.50;;
63320;SDS011;49449;48.800;9.534;2023-02-22T06:03:25;7.35;;;5.28;;
63320;SDS011;49449;48.800;9.534;2023-02-22T06:05:54;8.77;;;5.15;;
63320;SDS011;49449;48.800;9.534;2023-02-22T06:08:23;7.60;;;5.13;;
63320;SDS011;49449;48.800;9.534;2023-02-22T06:10:50;8.43;;;5.95;;
63320;SDS011;49449;48.800;9.534;2023-02-22T06:13:19;8.55;;;5.20;;
63320;SDS011;49449;48.800;9.534;2023-02-22T06:15:47;7.72;;;5.13;;
63320;SDS011;49449;48.800;9.534;2023-02-22T06:18:15;6.60;;;5.40;;
63320;SDS011;49449;48.800;9.534;2023-02-22T06:20:42;9.00;;;5.50;;
63320;SDS011;49449;48.800;9.534;2023-02-22T06:23:11;7.03;;;5.20;;
63320;SDS011;49449;48.800;9.534;2023-02-22T06:25:39;8.45;;;5.18;;
63320;SDS011;49449;48.800;9.534;2023-02-22T06:28:07;8.50;;;5.35;;
63320;SDS011;49449;48.800;9.534;2023-02-22T06:30:34;7.80;;;5.15;;
63320;SDS011;49449;48.800;9.534;2023-02-22T06:33:02;6.53;;;5.18;;
63320;SDS011;49449;48.800;9.534;2023-02-22T06:35:30;5.75;;;4.57;;
63320;SDS011;49449;48.800;9.534;2023-02-22T06:37:57;6.57;;;5.35;;
63320;SDS011;49449;48.800;9.534;2023-02-22T06:40:26;7.70;;;4.85;;
63320;SDS011;49449;48.800;9.534;2023-02-22T06:42:55;7.22;;;5.13;;
63320;SDS011;49449;48.800;9.534;2023-02-22T06:45:23;7.78;;;5.13;;
63320;SDS011;49449;48.800;9.534;2023-02-22T06:47:51;7.22;;;5.15;;
63320;SDS011;49449;48.800;9.534;2023-02-22T06:50:20;8.65;;;5.43;;
63320;SDS011;49449;48.800;9.534;2023-02-22T06:52:49;7.80;;;5.57;;
63320;SDS011;49449;48.800;9.534;2023-02-22T06:55:18;8.30;;;5.85;;
63320;SDS011;49449;48.800;9.534;2023-02-22T06:57:49;11.52;;;6.35;;
63320;SDS011;49449;48.800;9.534;2023-02-22T07:00:17;8.13;;;5.55;;
63320;SDS011;49449;48.800;9.534;2023-02-22T07:02:46;6.95;;;5.07;;
63320;SDS011;49449;48.800;9.534;2023-02-22T07:05:15;8.75;;;5.90;;
63320;SDS011;49449;48.800;9.534;2023-02-22T07:07:44;8.65;;;5.88;;
63320;SDS011;49449;48.800;9.534;2023-02-22T07:10:16;9.45;;;7.13;;
63320;SDS011;49449;48.800;9.534;2023-02-22T07:12:46;11.50;;;6.57;;
63320;SDS011;49449;48.800;9.534;2023-02-22T07:15:17;7.65;;;5.43;;
63320;SDS011;49449;48.800;9.534;2023-02-22T07:17:46;8.88;;;6.13;;
63320;SDS011;49449;48.800;9.534;2023-02-22T07:20:14;8.43;;;5.55;;
63320;SDS011;49449;48.800;9.534;2023-02-22T07:22:42;11.60;;;6.05;;
63320;SDS011;49449;48.800;9.534;2023-02-22T07:25:10;11.15;;;6.65;;
63320;SDS011;49449;48.800;9.534;2023-02-22T07:27:38;19.00;;;9.05;;
63320;SDS011;49449;48.800;9.534;2023-02-22T07:30:07;45.35;;;21.25;;
63320;SDS011;49449;48.800;9.534;2023-02-22T07:32:43;25.05;;;14.95;;
63320;SDS011;49449;48.800;9.534;2023-02-22T07:35:14;13.52;;;9.75;;
63320;SDS011;49449;48.800;9.534;2023-02-22T07:37:42;12.00;;;8.15;;
63320;SDS011;49449;48.800;9.534;2023-02-22T07:40:11;12.50;;;8.63;;
63320;SDS011;49449;48.800;9.534;2023-02-22T07:42:54;13.35;;;8.32;;
63320;SDS011;49449;48.800;9.534;2023-02-22T07:45:25;12.55;;;8.13;;
63320;SDS011;49449;48.800;9.534;2023-02-22T07:47:55;11.40;;;7.90;;
63320;SDS011;49449;48.800;9.534;2023-02-22T07:50:24;10.27;;;7.72;;
63320;SDS011;49449;48.800;9.534;2023-02-22T07:52:55;11.18;;;8.27;;
63320;SDS011;49449;48.800;9.534;2023-02-22T07:55:25;9.50;;;7.47;;
63320;SDS011;49449;48.800;9.534;2023-02-22T07:57:54;10.32;;;7.40;;
63320;SDS011;49449;48.800;9.534;2023-02-22T08:00:25;9.60;;;7.10;;
63320;SDS011;49449;48.800;9.534;2023-02-22T08:02:55;9.50;;;7.57;;
63320;SDS011;49449;48.800;9.534;2023-02-22T08:05:24;11.50;;;7.82;;
63320;SDS011;49449;48.800;9.534;2023-02-22T08:07:53;12.13;;;7.53;;
63320;SDS011;49449;48.800;9.534;2023-02-22T08:10:22;10.68;;;7.95;;
63320;SDS011;49449;48.800;9.534;2023-02-22T08:12:51;10.88;;;7.75;;
63320;SDS011;49449;48.800;9.534;2023-02-22T08:15:20;11.93;;;7.95;;
63320;SDS011;49449;48.800;9.534;2023-02-22T08:17:49;12.52;;;8.10;;
63320;SDS011;49449;48.800;9.534;2023-02-22T08:20:20;9.70;;;8.48;;
63320;SDS011;49449;48.800;9.534;2023-02-22T08:22:48;10.00;;;7.13;;
63320;SDS011;49449;48.800;9.534;2023-02-22T08:25:17;11.60;;;7.53;;
63320;SDS011;49449;48.800;9.534;2023-02-22T08:27:46;10.18;;;7.05;;
63320;SDS011;49449;48.800;9.534;2023-02-22T08:30:15;12.02;;;7.75;;
63320;SDS011;49449;48.800;9.534;2023-02-22T08:32:46;9.95;;;7.45;;
63320;SDS011;49449;48.800;9.534;2023-02-22T08:35:14;10.02;;;7.75;;
63320;SDS011;49449;48.800;9.534;2023-02-22T08:37:45;11.40;;;7.43;;
63320;SDS011;49449;48.800;9.534;2023-02-22T08:40:15;9.27;;;7.20;;
63320;SDS011;49449;48.800;9.534;2023-02-22T08:42:44;9.65;;;7.70;;
63320;SDS011;49449;48.800;9.534;2023-02-22T08:45:12;9.02;;;7.38;;
63320;SDS011;49449;48.800;9.534;2023-02-22T08:47:40;13.10;;;8.45;;
63320;SDS011;49449;48.800;9.534;2023-02-22T08:50:09;10.93;;;8.35;;
63320;SDS011;49449;48.800;9.534;2023-02-22T08:52:42;13.77;;;8.27;;
63320;SDS011;49449;48.800;9.534;2023-02-22T08:55:11;11.57;;;8.18;;
63320;SDS011;49449;48.800;9.534;2023-02-22T08:57:40;10.05;;;8.23;;
63320;SDS011;49449;48.800;9.534;2023-02-22T09:00:08;11.70;;;7.50;;
63320;SDS011;49449;48.800;9.534;2023-02-22T09:02:37;11.95;;;7.65;;
63320;SDS011;49449;48.800;9.534;2023-02-22T09:05:05;11.00;;;8.52;;
63320;SDS011;49449;48.800;9.534;2023-02-22T09:07:33;8.88;;;7.75;;
63320;SDS011;49449;48.800;9.534;2023-02-22T09:10:01;9.25;;;7.80;;
63320;SDS011;49449;48.800;9.534;2023-02-22T09:12:30;9.50;;;8.18;;
63320;SDS011;49449;48.800;9.534;2023-02-22T09:14:58;11.63;;;8.07;;
63320;SDS011;49449;48.800;9.534;2023-02-22T09:17:26;10.00;;;8.23;;
63320;SDS011;49449;48.800;9.534;2023-02-22T09:19:53;11.80;;;8.15;;
63320;SDS011;49449;48.800;9.534;2023-02-22T09:22:21;10.82;;;8.40;;
63320;SDS011;49449;48.800;9.534;2023-02-22T09:24:50;11.48;;;7.65;;
63320;SDS011;49449;48.800;9.534;2023-02-22T09:27:18;10.18;;;8.60;;
63320;SDS011;49449;48.800;9.534;2023-02-22T09:29:48;12.13;;;8.32;;
63320;SDS011;49449;48.800;9.534;2023-02-22T09:32:16;11.57;;;9.15;;
63320;SDS011;49449;48.800;9.534;2023-02-22T09:34:44;10.70;;;7.03;;
63320;SDS011;49449;48.800;9.534;2023-02-22T09:37:13;9.85;;;7.32;;
63320;SDS011;49449;48.800;9.534;2023-02-22T09:39:40;11.45;;;7.50;;
63320;SDS011;49449;48.800;9.534;2023-02-22T09:42:11;10.48;;;7.25;;
63320;SDS011;49449;48.800;9.534;2023-02-22T09:44:43;9.00;;;7.72;;
63320;SDS011;49449;48.800;9.534;2023-02-22T09:47:17;9.40;;;6.68;;
63320;SDS011;49449;48.800;9.534;2023-02-22T09:49:57;11.30;;;7.68;;
63320;SDS011;49449;48.800;9.534;2023-02-22T09:55:01;7.43;;;6.30;;
63320;SDS011;49449;48.800;9.534;2023-02-22T10:00:06;8.50;;;5.43;;
63320;SDS011;49449;48.800;9.534;2023-02-22T10:02:45;8.90;;;5.97;;
63320;SDS011;49449;48.800;9.534;2023-02-22T10:05:20;9.00;;;6.10;;
63320;SDS011;49449;48.800;9.534;2023-02-22T10:07:53;6.35;;;5.18;;
63320;SDS011;49449;48.800;9.534;2023-02-22T10:10:27;6.30;;;5.68;;
63320;SDS011;49449;48.800;9.534;2023-02-22T10:13:00;7.53;;;5.95;;
63320;SDS011;49449;48.800;9.534;2023-02-22T10:15:44;7.93;;;6.57;;
63320;SDS011;49449;48.800;9.534;2023-02-22T10:18:28;8.02;;;7.05;;
63320;SDS011;49449;48.800;9.534;2023-02-22T10:21:16;7.95;;;6.18;;
63320;SDS011;49449;48.800;9.534;2023-02-22T10:24:00;9.07;;;7.47;;
63320;SDS011;49449;48.800;9.534;2023-02-22T10:26:36;7.57;;;6.75;;
63320;SDS011;49449;48.800;9.534;2023-02-22T10:29:09;8.60;;;6.93;;
63320;SDS011;49449;48.800;9.534;2023-02-22T10:31:44;7.93;;;6.15;;
63320;SDS011;49449;48.800;9.534;2023-02-22T10:34:19;7.68;;;6.25;;
63320;SDS011;49449;48.800;9.534;2023-02-22T10:36:53;8.95;;;6.47;;
63320;SDS011;49449;48.800;9.534;2023-02-22T10:39:24;7.93;;;5.90;;
63320;SDS011;49449;48.800;9.534;2023-02-22T10:41:57;8.52;;;6.57;;
63320;SDS011;49449;48.800;9.534;2023-02-22T10:44:31;7.40;;;6.03;;
63320;SDS011;49449;48.800;9.534;2023-02-22T10:46:59;7.25;;;6.55;;
63320;SDS011;49449;48.800;9.534;2023-02-22T10:49:31;9.75;;;6.05;;
63320;SDS011;49449;48.800;9.534;2023-02-22T10:52:03;9.50;;;5.90;;
63320;SDS011;49449;48.800;9.534;2023-02-22T10:54:39;6.10;;;5.32;;
63320;SDS011;49449;48.800;9.534;2023-02-22T10:57:11;7.55;;;5.60;;
63320;SDS011;49449;48.800;9.534;2023-02-22T10:59:40;7.82;;;5.68;;
63320;SDS011;49449;48.800;9.534;2023-02-22T11:02:15;7.63;;;6.13;;
63320;SDS011;49449;48.800;9.534;2023-02-22T11:07:20;7.53;;;5.65;;
63320;SDS011;49449;48.800;9.534;2023-02-22T11:09:51;6.07;;;5.30;;
63320;SDS011;49449;48.800;9.534;2023-02-22T11:12:21;8.40;;;5.68;;
63320;SDS011;49449;48.800;9.534;2023-02-22T11:14:53;6.68;;;5.32;;
63320;SDS011;49449;48.800;9.534;2023-02-22T11:17:25;8.02;;;5.38;;
63320;SDS011;49449;48.800;9.534;2023-02-22T11:19:57;6.78;;;5.47;;
63320;SDS011;49449;48.800;9.534;2023-02-22T11:22:27;8.85;;;5.63;;
63320;SDS011;49449;48.800;9.534;2023-02-22T11:24:58;7.50;;;5.60;;
63320;SDS011;49449;48.800;9.534;2023-02-22T11:27:31;8.00;;;5.68;;
63320;SDS011;49449;48.800;9.534;2023-02-22T11:30:14;6.65;;;6.00;;
63320;SDS011;49449;48.800;9.534;2023-02-22T11:32:48;8.23;;;5.47;;
63320;SDS011;49449;48.800;9.534;2023-02-22T11:35:29;9.43;;;6.88;;
63320;SDS011;49449;48.800;9.534;2023-02-22T11:41:04;7.53;;;5.47;;
63320;SDS011;49449;48.800;9.534;2023-02-22T11:43:39;9.13;;;6.35;;
63320;SDS011;49449;48.800;9.534;2023-02-22T11:46:10;7.97;;;5.43;;
63320;SDS011;49449;48.800;9.534;2023-02-22T11:48:40;6.45;;;4.55;;
63320;SDS011;49449;48.800;9.534;2023-02-22T11:51:25;8.65;;;4.90;;
63320;SDS011;49449;48.800;9.534;2023-02-22T11:54:08;7.20;;;4.93;;
63320;SDS011;49449;48.800;9.534;2023-02-22T11:56:51;6.97;;;4.43;;
63320;SDS011;49449;48.800;9.534;2023-02-22T11:59:24;8.75;;;5.07;;
63320;SDS011;49449;48.800;9.534;2023-02-22T12:02:02;6.65;;;4.70;;
63320;SDS011;49449;48.800;9.534;2023-02-22T12:04:53;6.90;;;4.85;;
63320;SDS011;49449;48.800;9.534;2023-02-22T12:07:43;9.77;;;6.32;;
63320;SDS011;49449;48.800;9.534;2023-02-22T12:10:26;8.60;;;5.82;;
63320;SDS011;49449;48.800;9.534;2023-02-22T12:13:13;9.75;;;6.50;;
63320;SDS011;49449;48.800;9.534;2023-02-22T12:15:53;9.55;;;6.20;;
63320;SDS011;49449;48.800;9.534;2023-02-22T12:18:31;7.22;;;5.28;;
63320;SDS011;49449;48.800;9.534;2023-02-22T12:21:10;8.40;;;6.07;;
63320;SDS011;49449;48.800;9.534;2023-02-22T12:23:44;7.03;;;5.30;;
63320;SDS011;49449;48.800;9.534;2023-02-22T12:26:17;6.75;;;5.07;;
63320;SDS011;49449;48.800;9.534;2023-02-22T12:28:52;9.43;;;5.72;;
63320;SDS011;49449;48.800;9.534;2023-02-22T12:31:26;8.23;;;5.15;;
63320;SDS011;49449;48.800;9.534;2023-02-22T12:34:00;7.43;;;5.43;;
63320;SDS011;49449;48.800;9.534;2023-02-22T12:36:35;7.05;;;5.10;;
63320;SDS011;49449;48.800;9.534;2023-02-22T12:39:22;9.43;;;5.78;;
63320;SDS011;49449;48.800;9.534;2023-02-22T12:42:11;8.20;;;5.90;;
63320;SDS011;49449;48.800;9.534;2023-02-22T12:44:43;10.02;;;6.13;;
63320;SDS011;49449;48.800;9.534;2023-02-22T12:47:17;7.72;;;5.55;;
63320;SDS011;49449;48.800;9.534;2023-02-22T12:49:51;7.15;;;5.78;;
63320;SDS011;49449;48.800;9.534;2023-02-22T12:52:34;7.75;;;5.43;;
63320;SDS011;49449;48.800;9.534;2023-02-22T12:55:10;8.82;;;5.72;;
63320;SDS011;49449;48.800;9.534;2023-02-22T12:57:43;8.20;;;5.57;;
63320;SDS011;49449;48.800;9.534;2023-02-22T13:00:18;8.13;;;6.05;;
63320;SDS011;49449;48.800;9.534;2023-02-22T13:02:55;7.07;;;5.38;;
63320;SDS011;49449;48.800;9.534;2023-02-22T13:05:27;8.32;;;5.80;;
63320;SDS011;49449;48.800;9.534;2023-02-22T13:08:18;10.93;;;6.38;;
63320;SDS011;49449;48.800;9.534;2023-02-22T13:10:57;6.55;;;4.82;;
63320;SDS011;49449;48.800;9.534;2023-02-22T13:13:34;9.50;;;5.65;;
63320;SDS011;49449;48.800;9.534;2023-02-22T13:16:09;8.57;;;6.13;;
63320;SDS011;49449;48.800;9.534;2023-02-22T13:18:49;8.90;;;6.22;;
63320;SDS011;49449;48.800;9.534;2023-02-22T13:21:24;8.43;;;5.38;;
63320;SDS011;49449;48.800;9.534;2023-02-22T13:23:59;6.65;;;5.00;;
63320;SDS011;49449;48.800;9.534;2023-02-22T13:26:34;6.95;;;4.75;;
63320;SDS011;49449;48.800;9.534;2023-02-22T13:29:11;6.75;;;4.90;;
63320;SDS011;49449;48.800;9.534;2023-02-22T13:31:49;8.18;;;6.45;;
63320;SDS011;49449;48.800;9.534;2023-02-22T13:34:42;7.45;;;5.50;;
63320;SDS011;49449;48.800;9.534;2023-02-22T13:37:21;8.32;;;5.65;;
63320;SDS011;49449;48.800;9.534;2023-02-22T13:43:00;8.63;;;6.10;;
63320;SDS011;49449;48.800;9.534;2023-02-22T13:45:57;6.82;;;4.85;;
63320;SDS011;49449;48.800;9.534;2023-02-22T13:51:58;7.75;;;5.07;;
63320;SDS011;49449;48.800;9.534;2023-02-22T13:54:28;7.43;;;4.97;;
63320;SDS011;49449;48.800;9.534;2023-02-22T13:57:04;7.93;;;5.10;;
63320;SDS011;49449;48.800;9.534;2023-02-22T13:59:46;7.47;;;4.97;;
63320;SDS011;49449;48.800;9.534;2023-02-22T14:05:34;7.82;;;5.90;;
63320;SDS011;49449;48.800;9.534;2023-02-22T14:08:04;8.07;;;5.05;;
63320;SDS011;49449;48.800;9.534;2023-02-22T14:10:37;6.32;;;4.60;;
63320;SDS011;49449;48.800;9.534;2023-02-22T14:13:11;9.35;;;5.60;;
63320;SDS011;49449;48.800;9.534;2023-02-22T14:18:45;7.28;;;4.97;;
63320;SDS011;49449;48.800;9.534;2023-02-22T14:21:16;7.28;;;5.22;;
63320;SDS011;49449;48.800;9.534;2023-02-22T14:23:45;6.90;;;4.47;;
63320;SDS011;49449;48.800;9.534;2023-02-22T14:26:16;8.32;;;5.13;;
63320;SDS011;49449;48.800;9.534;2023-02-22T14:28:52;7.18;;;4.90;;
63320;SDS011;49449;48.800;9.534;2023-02-22T14:34:09;7.57;;;4.35;;
63320;SDS011;49449;48.800;9.534;2023-02-22T14:36:40;5.35;;;3.83;;
63320;SDS011;49449;48.800;9.534;2023-02-22T14:39:16;5.85;;;4.35;;
63320;SDS011;49449;48.800;9.534;2023-02-22T14:41:50;5.88;;;4.70;;
63320;SDS011;49449;48.800;9.534;2023-02-22T14:44:24;6.18;;;4.40;;
63320;SDS011;49449;48.800;9.534;2023-02-22T14:46:57;5.00;;;3.92;;
63320;SDS011;49449;48.800;9.534;2023-02-22T14:49:30;8.05;;;4.97;;
63320;SDS011;49449;48.800;9.534;2023-02-22T14:52:05;7.25;;;4.70;;
63320;SDS011;49449;48.800;9.534;2023-02-22T14:54:46;6.38;;;4.63;;
63320;SDS011;49449;48.800;9.534;2023-02-22T14:57:25;7.05;;;5.28;;
63320;SDS011;49449;48.800;9.534;2023-02-22T15:00:00;8.63;;;5.20;;
63320;SDS011;49449;48.800;9.534;2023-02-22T15:02:48;6.63;;;4.60;;
63320;SDS011;49449;48.800;9.534;2023-02-22T15:05:18;6.80;;;4.55;;
63320;SDS011;49449;48.800;9.534;2023-02-22T15:07:50;7.07;;;5.07;;
63320;SDS011;49449;48.800;9.534;2023-02-22T15:10:22;9.20;;;5.63;;
63320;SDS011;49449;48.800;9.534;2023-02-22T15:12:54;7.57;;;5.00;;
63320;SDS011;49449;48.800;9.534;2023-02-22T15:15:35;8.32;;;5.40;;
63320;SDS011;49449;48.800;9.534;2023-02-22T15:18:11;8.23;;;5.47;;
63320;SDS011;49449;48.800;9.534;2023-02-22T15:20:48;7.40;;;5.32;;
63320;SDS011;49449;48.800;9.534;2023-02-22T15:23:22;6.38;;;5.00;;
63320;SDS011;49449;48.800;9.534;2023-02-22T15:25:55;7.43;;;5.45;;
63320;SDS011;49449;48.800;9.534;2023-02-22T15:28:23;10.98;;;6.90;;
63320;SDS011;49449;48.800;9.534;2023-02-22T15:36:45;8.63;;;6.53;;
63320;SDS011;49449;48.800;9.534;2023-02-22T15:39:17;10.57;;;6.65;;
63320;SDS011;49449;48.800;9.534;2023-02-22T15:41:45;8.52;;;6.00;;
63320;SDS011;49449;48.800;9.534;2023-02-22T15:44:13;10.32;;;6.75;;
63320;SDS011;49449;48.800;9.534;2023-02-22T15:46:49;8.80;;;6.18;;
63320;SDS011;49449;48.800;9.534;2023-02-22T15:49:21;9.95;;;7.03;;
63320;SDS011;49449;48.800;9.534;2023-02-22T15:51:58;9.85;;;7.50;;
63320;SDS011;49449;48.800;9.534;2023-02-22T15:54:35;7.63;;;6.82;;
63320;SDS011;49449;48.800;9.534;2023-02-22T15:57:06;9.27;;;6.93;;